Brightway — 9V8755 — position and weather

sailwx.info

Track history (hours):
 
Tides and Currents Weather Stations Pressure Air Temp Water Temp Dewpoint Dewpoint Depression Visibility Wind Speed Wind Dir Waves Ship Positions

Brightway

Last reported at 2016-Aug-29 02:17 UTC. Time now 2016-Sep-01 03:40 UTC.
Position N 35°43' E 032°56'.

Length 274 m; draft 10 m.

Type: Tanker. MMSI: 566422000.

Date/timePositionNaut miles runAvg speedWind from/ knotsBaromVisibWave heightAir tempDewpointWater temp
2016-Aug-29 02:17N 35°43' E 032°56'35312.5
2016-Aug-27 22:05N 37°23' E 025°55'713.2
2016-Aug-27 21:33N 37°28' E 025°48'1413.7
2016-Aug-27 20:33N 37°41' E 025°45'  
2016-Aug-25 09:26N 37°28' E 025°48'25412.6
2016-Aug-24 13:16N 34°17' E 029°15'1012.8
2016-Aug-24 12:27N 34°09' E 029°23'1212.8
2016-Aug-24 11:33N 33°60' E 029°32'1312.9
2016-Aug-24 10:34N 33°50' E 029°42'1613.0
2016-Aug-24 09:19N 33°38' E 029°54'1313.6
2016-Aug-24 08:23N 33°29' E 030°05'2513.4
2016-Aug-24 06:33N 33°10' E 030°25'2713.7
2016-Aug-24 04:33N 32°50' E 030°47'1413.9
2016-Aug-24 03:34N 32°39' E 030°57'1514.0
2016-Aug-24 02:31N 32°29' E 031°09'1313.9
2016-Aug-24 01:34N 32°18' E 031°19'1913.4
2016-Aug-24 00:09N 32°04' E 031°34'1413.3
2016-Aug-23 23:07N 31°54' E 031°45'2013.1
2016-Aug-23 21:33N 31°41' E 032°03'1612.9
2016-Aug-23 20:21N 31°31' E 032°17'911.0
2016-Aug-23 19:33N 31°25' E 032°24'1210.8
2016-Aug-23 18:25N 31°13' E 032°21'7 7.6
2016-Aug-23 17:29N 31°06' E 032°19'8 8.8
2016-Aug-23 16:33N 30°58' E 032°19'12 8.6
2016-Aug-23 15:11N 30°46' E 032°20'  
Track history (hours):
 
Tides and Currents Weather Stations Pressure Air Temp Water Temp Dewpoint Dewpoint Depression Visibility Wind Speed Wind Dir Waves Ship Positions

Brightway

Last reported at 2016-Aug-29 02:17 UTC. Time now 2016-Sep-01 03:40 UTC.
Position N 35°43' E 032°56'.

Length 274 m; draft 10 m.

Type: Tanker. MMSI: 566422000.

Date/timePositionNaut miles runAvg speedWind from/ knotsBaromVisibWave heightAir tempDewpointWater temp
2016-Aug-29 02:17N 35°43' E 032°56'35312.5
2016-Aug-27 22:05N 37°23' E 025°55'713.2
2016-Aug-27 21:33N 37°28' E 025°48'1413.7
2016-Aug-27 20:33N 37°41' E 025°45'  
2016-Aug-25 09:26N 37°28' E 025°48'25412.6
2016-Aug-24 13:16N 34°17' E 029°15'1012.8
2016-Aug-24 12:27N 34°09' E 029°23'1212.8
2016-Aug-24 11:33N 33°60' E 029°32'1312.9
2016-Aug-24 10:34N 33°50' E 029°42'1613.0
2016-Aug-24 09:19N 33°38' E 029°54'1313.6
2016-Aug-24 08:23N 33°29' E 030°05'2513.4
2016-Aug-24 06:33N 33°10' E 030°25'2713.7
2016-Aug-24 04:33N 32°50' E 030°47'1413.9
2016-Aug-24 03:34N 32°39' E 030°57'1514.0
2016-Aug-24 02:31N 32°29' E 031°09'1313.9
2016-Aug-24 01:34N 32°18' E 031°19'1913.4
2016-Aug-24 00:09N 32°04' E 031°34'1413.3
2016-Aug-23 23:07N 31°54' E 031°45'2013.1
2016-Aug-23 21:33N 31°41' E 032°03'1612.9
2016-Aug-23 20:21N 31°31' E 032°17'911.0
2016-Aug-23 19:33N 31°25' E 032°24'1210.8
2016-Aug-23 18:25N 31°13' E 032°21'7 7.6
2016-Aug-23 17:29N 31°06' E 032°19'8 8.8
2016-Aug-23 16:33N 30°58' E 032°19'12 8.6
2016-Aug-23 15:11N 30°46' E 032°20'  

Dump ship's entire track history